createdAt,value
2023-04-14T00:00:48.744Z,7.85
2023-04-14T00:03:16.626Z,7.74
2023-04-14T00:05:43.260Z,7.45
2023-04-14T00:08:09.626Z,7.31
2023-04-14T00:10:36.052Z,7.27
2023-04-14T00:13:02.420Z,7.23
2023-04-14T00:15:28.832Z,7.23
2023-04-14T00:17:55.383Z,7.21
2023-04-14T00:20:21.832Z,7.19
2023-04-14T00:22:48.210Z,7.16
2023-04-14T00:25:14.668Z,7.21
2023-04-14T00:27:41.072Z,7.10
2023-04-14T00:30:08.000Z,6.93
2023-04-14T00:32:34.428Z,6.87
2023-04-14T00:35:03.156Z,6.83
2023-04-14T00:37:30.769Z,6.74
2023-04-14T00:39:57.228Z,6.92
2023-04-14T00:42:23.844Z,6.99
2023-04-14T00:44:50.288Z,6.90
2023-04-14T00:47:17.468Z,6.73
2023-04-14T00:49:43.922Z,6.60
2023-04-14T00:52:10.439Z,6.48
2023-04-14T00:54:38.261Z,6.31
2023-04-14T00:57:05.301Z,6.60
2023-04-14T00:59:31.775Z,6.43
2023-04-14T01:01:59.209Z,6.58
2023-04-14T01:04:33.680Z,6.78
2023-04-14T01:07:07.205Z,6.86
2023-04-14T01:09:33.604Z,6.94
2023-04-14T01:12:38.540Z,6.99
2023-04-14T01:15:12.629Z,6.81
2023-04-14T01:17:50.012Z,6.70
2023-04-14T01:20:48.072Z,6.77
2023-04-14T01:23:27.457Z,6.75
2023-04-14T01:26:42.266Z,6.73
2023-04-14T01:29:29.577Z,6.64
2023-04-14T01:32:02.877Z,6.62
2023-04-14T01:34:51.053Z,6.55
2023-04-14T01:37:19.456Z,6.55
2023-04-14T01:39:50.180Z,6.55
2023-04-14T01:42:19.536Z,6.59
2023-04-14T01:44:49.199Z,6.59
2023-04-14T01:47:17.703Z,6.56
2023-04-14T01:49:45.268Z,6.36
2023-04-14T01:52:13.493Z,6.27
2023-04-14T01:54:41.468Z,6.38
2023-04-14T01:57:09.201Z,6.16
2023-04-14T01:59:37.134Z,5.76
2023-04-14T02:02:05.314Z,5.74
2023-04-14T02:04:32.330Z,5.76
2023-04-14T02:06:59.442Z,5.75
2023-04-14T02:09:28.133Z,5.85
2023-04-14T02:11:54.861Z,6.10
2023-04-14T02:14:22.456Z,6.13
2023-04-14T02:16:49.090Z,6.17
2023-04-14T02:19:18.795Z,6.32
2023-04-14T02:21:46.387Z,6.42
2023-04-14T02:24:12.768Z,6.62
2023-04-14T02:26:44.275Z,6.51
2023-04-14T02:29:12.757Z,6.20
2023-04-14T02:31:50.371Z,6.09
2023-04-14T02:34:18.977Z,5.92
2023-04-14T02:36:48.188Z,5.88
2023-04-14T02:39:21.499Z,5.73
2023-04-14T02:41:50.256Z,5.61
2023-04-14T02:44:19.501Z,5.48
2023-04-14T02:46:55.947Z,5.36
2023-04-14T02:49:23.390Z,5.55
2023-04-14T02:51:50.376Z,5.53
2023-04-14T02:54:18.188Z,5.48
2023-04-14T02:56:44.676Z,5.31
2023-04-14T02:59:11.310Z,5.49
2023-04-14T03:01:37.823Z,5.54
2023-04-14T03:04:04.467Z,5.68
2023-04-14T03:06:31.707Z,5.68
2023-04-14T03:09:00.044Z,5.95
2023-04-14T03:11:27.483Z,5.97
2023-04-14T03:13:56.378Z,5.92
2023-04-14T03:16:23.081Z,5.96
2023-04-14T03:18:50.627Z,5.93
2023-04-14T03:21:19.114Z,5.88
2023-04-14T03:23:46.755Z,5.74
2023-04-14T03:26:15.006Z,5.53
2023-04-14T03:28:42.656Z,5.61
2023-04-14T03:31:10.809Z,5.70
2023-04-14T03:33:38.865Z,5.62
2023-04-14T03:36:07.432Z,5.52
2023-04-14T03:38:34.620Z,5.24
2023-04-14T03:41:04.128Z,5.30
2023-04-14T03:43:31.532Z,5.56
2023-04-14T03:45:58.169Z,5.72
2023-04-14T03:48:26.342Z,5.77
2023-04-14T03:50:53.779Z,5.53
2023-04-14T03:53:21.205Z,5.54
2023-04-14T03:55:49.728Z,5.42
2023-04-14T03:58:17.222Z,5.35
2023-04-14T04:00:44.788Z,5.43
2023-04-14T04:03:12.301Z,5.40
2023-04-14T04:05:40.888Z,5.53
2023-04-14T04:08:08.273Z,5.45
2023-04-14T04:10:35.446Z,5.23
2023-04-14T04:13:03.039Z,5.25
2023-04-14T04:15:31.283Z,5.31
2023-04-14T04:17:58.390Z,5.25
2023-04-14T04:20:25.926Z,4.98
2023-04-14T04:22:52.726Z,4.81
2023-04-14T04:25:19.621Z,5.06
2023-04-14T04:27:46.447Z,4.92
2023-04-14T04:30:13.302Z,4.94
2023-04-14T04:32:39.737Z,5.15
2023-04-14T04:35:07.398Z,5.17
2023-04-14T04:37:34.708Z,5.16
2023-04-14T04:40:01.122Z,5.07
2023-04-14T04:42:27.553Z,5.04
2023-04-14T04:44:53.959Z,5.11
2023-04-14T04:47:20.329Z,5.08
2023-04-14T04:49:46.734Z,5.08
2023-04-14T04:52:13.276Z,5.42
2023-04-14T04:54:39.912Z,5.32
2023-04-14T04:57:06.316Z,5.48
2023-04-14T04:59:33.137Z,5.16
2023-04-14T05:01:59.614Z,5.33
2023-04-14T05:04:26.176Z,5.23
2023-04-14T05:06:52.606Z,5.06
2023-04-14T05:09:19.056Z,5.17
2023-04-14T05:11:45.444Z,5.12
2023-04-14T05:14:11.835Z,5.13
2023-04-14T05:16:38.220Z,5.08
2023-04-14T05:19:04.618Z,4.96
2023-04-14T05:21:31.056Z,5.20
2023-04-14T05:23:57.566Z,5.51
2023-04-14T05:26:38.962Z,5.60
2023-04-14T05:29:10.551Z,5.73
2023-04-14T05:31:37.055Z,5.92
2023-04-14T05:34:03.663Z,5.95
2023-04-14T05:36:30.978Z,5.97
2023-04-14T05:38:57.428Z,6.02
2023-04-14T05:41:23.836Z,6.03
2023-04-14T05:43:50.697Z,6.04
2023-04-14T05:46:17.605Z,6.01
2023-04-14T05:48:44.155Z,5.82
2023-04-14T05:51:10.604Z,5.85
2023-04-14T05:53:36.990Z,5.98
2023-04-14T05:56:03.550Z,5.96
2023-04-14T05:58:29.930Z,6.04
2023-04-14T06:00:56.314Z,5.90
2023-04-14T06:03:22.888Z,6.05
2023-04-14T06:05:50.617Z,6.37
2023-04-14T06:08:17.134Z,6.51
2023-04-14T06:10:43.654Z,6.47
2023-04-14T06:13:11.032Z,6.70
2023-04-14T06:15:37.597Z,6.95
2023-04-14T06:18:04.156Z,7.13
2023-04-14T06:20:32.163Z,7.24
2023-04-14T06:23:00.726Z,7.27
2023-04-14T06:25:27.221Z,7.45
2023-04-14T06:27:53.634Z,7.48
2023-04-14T06:30:20.078Z,7.74
2023-04-14T06:32:48.461Z,7.79
2023-04-14T06:35:26.032Z,7.74
2023-04-14T06:37:58.567Z,8.11
2023-04-14T06:40:25.070Z,8.24
2023-04-14T06:42:51.450Z,8.43
2023-04-14T06:45:17.932Z,8.50
2023-04-14T06:47:44.382Z,8.61
2023-04-14T06:50:12.091Z,8.77
2023-04-14T06:52:38.509Z,8.95
2023-04-14T06:55:05.311Z,9.05
2023-04-14T06:57:31.696Z,9.18
2023-04-14T06:59:58.148Z,8.78
2023-04-14T07:02:24.663Z,8.50
2023-04-14T07:04:52.018Z,8.69
2023-04-14T07:07:18.516Z,8.87
2023-04-14T07:09:45.045Z,8.94
2023-04-14T07:12:15.423Z,9.19
2023-04-14T07:14:42.640Z,9.50
2023-04-14T07:17:09.361Z,9.76
2023-04-14T07:19:35.780Z,9.96
2023-04-14T07:22:02.424Z,10.08
2023-04-14T07:24:28.886Z,10.19
2023-04-14T07:26:55.435Z,10.29
2023-04-14T07:29:21.836Z,10.28
2023-04-14T07:31:48.300Z,10.20
2023-04-14T07:34:14.700Z,10.27
2023-04-14T07:36:41.131Z,10.04
2023-04-14T07:39:07.570Z,10.24
2023-04-14T07:41:33.976Z,9.89
2023-04-14T07:44:00.726Z,9.57
2023-04-14T07:46:27.776Z,9.71
2023-04-14T07:48:54.308Z,10.04
2023-04-14T07:51:20.875Z,10.45
2023-04-14T07:53:47.290Z,10.77
2023-04-14T07:56:15.585Z,10.73
2023-04-14T07:58:42.003Z,10.74
2023-04-14T08:01:08.406Z,10.96
2023-04-14T08:03:37.255Z,11.27
2023-04-14T08:06:07.387Z,11.29
2023-04-14T08:08:34.571Z,11.35
2023-04-14T08:11:01.069Z,11.83
2023-04-14T08:13:27.522Z,11.61
2023-04-14T08:15:53.909Z,11.78
2023-04-14T08:18:20.421Z,11.82
2023-04-14T08:20:46.858Z,11.89
2023-04-14T08:23:13.311Z,11.95
2023-04-14T08:25:39.751Z,12.23
2023-04-14T08:28:06.174Z,12.35
2023-04-14T08:30:32.575Z,12.55
2023-04-14T08:32:59.322Z,11.76
2023-04-14T08:35:39.190Z,12.21
2023-04-14T08:38:06.760Z,12.21
2023-04-14T08:40:41.100Z,12.64
2023-04-14T08:43:08.010Z,12.82
2023-04-14T08:45:34.968Z,12.90
2023-04-14T08:48:05.690Z,12.60
2023-04-14T08:50:36.970Z,12.26
2023-04-14T08:53:06.504Z,12.25
2023-04-14T08:55:33.465Z,12.36
2023-04-14T08:58:02.185Z,12.67
2023-04-14T09:00:28.672Z,12.34
2023-04-14T09:02:55.992Z,12.17
2023-04-14T09:05:22.466Z,12.00
2023-04-14T09:07:49.413Z,12.35
2023-04-14T09:10:16.628Z,12.92
2023-04-14T09:12:43.093Z,12.89
2023-04-14T09:15:10.288Z,13.31
2023-04-14T09:17:37.227Z,13.43
2023-04-14T09:20:38.105Z,13.81
2023-04-14T09:22:51.135Z,13.59
2023-04-14T09:25:17.630Z,13.33
2023-04-14T09:27:44.295Z,13.62
2023-04-14T09:30:11.263Z,13.47
2023-04-14T09:32:38.521Z,14.04
2023-04-14T09:35:06.169Z,13.92
2023-04-14T09:37:43.819Z,13.29
2023-04-14T09:40:11.845Z,13.57
2023-04-14T09:42:39.944Z,13.94
2023-04-14T09:45:07.036Z,13.68
2023-04-14T09:47:33.471Z,13.86
2023-04-14T09:50:03.133Z,13.42
2023-04-14T09:52:37.770Z,13.67
2023-04-14T09:55:07.487Z,13.56
2023-04-14T09:57:35.541Z,13.85
2023-04-14T10:00:01.971Z,14.78
2023-04-14T10:02:28.671Z,14.81
2023-04-14T10:05:05.440Z,15.19
2023-04-14T10:07:33.480Z,15.23
2023-04-14T10:10:06.826Z,15.09
2023-04-14T10:12:33.400Z,16.08
2023-04-14T10:15:00.051Z,16.19
2023-04-14T10:17:29.174Z,15.95
2023-04-14T10:19:56.441Z,16.05
2023-04-14T10:22:23.735Z,16.27
2023-04-14T10:24:51.248Z,16.38
2023-04-14T10:27:17.675Z,16.85
2023-04-14T10:29:44.078Z,17.30
2023-04-14T10:32:13.577Z,16.73
2023-04-14T10:34:54.705Z,16.85
2023-04-14T10:37:21.184Z,16.63
2023-04-14T10:39:56.233Z,16.63
2023-04-14T10:42:23.237Z,16.82
2023-04-14T10:45:06.756Z,16.88
2023-04-14T10:47:35.272Z,17.00
2023-04-14T10:50:18.497Z,17.24
2023-04-14T10:52:58.831Z,16.68
2023-04-14T10:55:27.856Z,16.10
2023-04-14T10:58:05.162Z,16.32
2023-04-14T11:00:34.844Z,16.51
2023-04-14T11:03:11.963Z,17.10
2023-04-14T11:05:48.495Z,16.98
2023-04-14T11:08:26.304Z,16.43
2023-04-14T11:11:04.087Z,16.18
2023-04-14T11:13:31.998Z,16.55
2023-04-14T11:16:01.893Z,16.94
2023-04-14T11:18:28.224Z,16.40
2023-04-14T11:21:15.069Z,16.67
2023-04-14T11:23:42.304Z,16.52
2023-04-14T11:26:09.859Z,15.69
2023-04-14T11:28:38.319Z,16.07
2023-04-14T11:31:06.230Z,16.00
2023-04-14T11:33:34.318Z,15.94
2023-04-14T11:36:02.535Z,15.73
2023-04-14T11:38:29.885Z,16.98
2023-04-14T11:40:56.783Z,18.58
2023-04-14T11:43:23.776Z,19.69
2023-04-14T11:45:51.660Z,20.09
2023-04-14T11:48:19.610Z,19.17
2023-04-14T11:50:48.017Z,20.33
2023-04-14T11:53:17.258Z,20.96
2023-04-14T11:55:48.912Z,20.30
2023-04-14T11:58:19.756Z,21.65
2023-04-14T12:00:48.213Z,21.71
2023-04-14T12:03:14.927Z,22.44
2023-04-14T12:05:41.895Z,22.60
2023-04-14T12:08:12.227Z,22.23
2023-04-14T12:10:42.163Z,20.62
2023-04-14T12:13:09.925Z,19.07
2023-04-14T12:15:37.315Z,19.27
2023-04-14T12:18:15.807Z,20.34
2023-04-14T12:20:46.854Z,21.11
2023-04-14T12:23:13.636Z,19.48
2023-04-14T12:25:40.407Z,20.05
2023-04-14T12:28:06.931Z,20.61
2023-04-14T12:30:34.558Z,20.69
2023-04-14T12:33:08.636Z,21.69
2023-04-14T12:35:35.148Z,22.64
2023-04-14T12:38:01.546Z,23.34
2023-04-14T12:40:38.866Z,22.76
2023-04-14T12:43:05.322Z,23.51
2023-04-14T12:45:41.057Z,22.48
2023-04-14T12:48:08.314Z,21.58
2023-04-14T12:50:34.891Z,20.36
2023-04-14T12:53:01.531Z,20.63
2023-04-14T12:55:29.772Z,20.71
2023-04-14T12:57:58.324Z,20.57
2023-04-14T13:00:27.442Z,20.22
2023-04-14T13:02:55.572Z,21.63
2023-04-14T13:05:22.704Z,21.88
2023-04-14T13:07:49.207Z,22.23
2023-04-14T13:10:15.860Z,21.50
2023-04-14T13:12:42.584Z,20.49
2023-04-14T13:15:09.496Z,19.03
2023-04-14T13:17:55.939Z,18.36
2023-04-14T13:20:22.453Z,19.98
2023-04-14T13:22:48.851Z,22.08
2023-04-14T13:25:15.357Z,22.45
2023-04-14T13:27:41.730Z,23.81
2023-04-14T13:30:08.938Z,24.36
2023-04-14T13:32:35.374Z,24.49
2023-04-14T13:35:01.774Z,24.14
2023-04-14T13:37:28.217Z,23.10
2023-04-14T13:39:54.892Z,21.06
2023-04-14T13:42:21.258Z,21.14
2023-04-14T13:44:48.027Z,20.37
2023-04-14T13:47:14.407Z,19.61
2023-04-14T13:49:40.804Z,20.23
2023-04-14T13:52:08.245Z,18.33
2023-04-14T13:54:35.336Z,18.51
2023-04-14T13:57:01.803Z,19.16
2023-04-14T13:59:28.294Z,18.82
2023-04-14T14:01:54.807Z,17.83
2023-04-14T14:04:21.586Z,17.47
2023-04-14T14:06:48.067Z,17.67
2023-04-14T14:09:14.487Z,17.66
2023-04-14T14:11:44.040Z,17.18
2023-04-14T14:14:12.730Z,17.28
2023-04-14T14:16:39.252Z,16.75
2023-04-14T14:19:07.979Z,16.16
2023-04-14T14:21:34.425Z,16.82
2023-04-14T14:24:01.374Z,16.83
2023-04-14T14:26:27.980Z,16.84
2023-04-14T14:28:54.365Z,16.79
2023-04-14T14:31:20.776Z,17.55
2023-04-14T14:33:47.286Z,17.62
2023-04-14T14:36:14.958Z,17.83
2023-04-14T14:38:41.371Z,17.03
2023-04-14T14:41:07.759Z,16.93
2023-04-14T14:43:34.164Z,17.58
2023-04-14T14:46:01.588Z,17.70
2023-04-14T14:48:28.140Z,18.10
2023-04-14T14:50:54.517Z,17.62
2023-04-14T14:53:20.868Z,18.29
2023-04-14T14:55:47.409Z,17.94
2023-04-14T14:58:13.858Z,17.58
2023-04-14T15:00:40.285Z,18.52
2023-04-14T15:03:06.726Z,19.33
2023-04-14T15:05:33.520Z,18.19
2023-04-14T15:07:59.927Z,17.88
2023-04-14T15:10:26.630Z,16.86
2023-04-14T15:12:53.622Z,16.42
2023-04-14T15:15:20.076Z,16.20
2023-04-14T15:17:46.566Z,16.16
2023-04-14T15:20:13.175Z,16.14
2023-04-14T15:22:39.593Z,16.48
2023-04-14T15:25:07.029Z,16.82
2023-04-14T15:27:33.443Z,16.85
2023-04-14T15:30:00.029Z,17.03
2023-04-14T15:32:27.287Z,17.17
2023-04-14T15:34:54.490Z,17.15
2023-04-14T15:37:20.940Z,16.82
2023-04-14T15:39:47.332Z,16.46
2023-04-14T15:42:13.862Z,15.81
2023-04-14T15:44:40.320Z,15.96
2023-04-14T15:47:06.764Z,16.55
2023-04-14T15:49:33.141Z,16.88
2023-04-14T15:51:59.512Z,16.41
2023-04-14T15:54:26.861Z,16.52
2023-04-14T15:56:53.255Z,16.35
2023-04-14T15:59:20.589Z,16.73
2023-04-14T16:01:47.364Z,17.28
2023-04-14T16:04:13.951Z,18.71
2023-04-14T16:06:40.650Z,20.07
2023-04-14T16:09:07.094Z,21.34
2023-04-14T16:11:36.306Z,20.27
2023-04-14T16:14:03.105Z,20.83
2023-04-14T16:16:29.779Z,20.08
2023-04-14T16:18:56.167Z,21.19
2023-04-14T16:21:22.548Z,22.07
2023-04-14T16:23:48.936Z,23.62
2023-04-14T16:26:15.991Z,23.88
2023-04-14T16:28:42.770Z,23.71
2023-04-14T16:31:09.217Z,21.23
2023-04-14T16:33:35.698Z,20.89
2023-04-14T16:36:08.764Z,22.50
2023-04-14T16:38:35.343Z,23.50
2023-04-14T16:41:02.498Z,23.31
2023-04-14T16:43:29.048Z,24.08
2023-04-14T16:46:05.019Z,23.38
2023-04-14T16:48:32.384Z,24.18
2023-04-14T16:51:09.124Z,24.56
2023-04-14T16:53:36.446Z,23.04
2023-04-14T16:56:12.952Z,23.26
2023-04-14T16:58:39.827Z,21.12
2023-04-14T17:01:07.128Z,19.65
2023-04-14T17:03:34.198Z,19.50
2023-04-14T17:06:00.814Z,18.81
2023-04-14T17:08:27.210Z,17.50
2023-04-14T17:10:53.574Z,15.29
2023-04-14T17:13:20.313Z,14.95
2023-04-14T17:15:55.688Z,15.15
2023-04-14T17:18:28.619Z,15.27
2023-04-14T17:20:54.992Z,14.99
2023-04-14T17:23:21.798Z,14.61
2023-04-14T17:25:48.512Z,14.64
2023-04-14T17:28:15.494Z,14.42
2023-04-14T17:30:42.081Z,14.46
2023-04-14T17:33:08.678Z,14.01
2023-04-14T17:35:35.460Z,13.93
2023-04-14T17:38:02.247Z,13.86
2023-04-14T17:40:28.723Z,13.82
2023-04-14T17:42:55.561Z,13.81
2023-04-14T17:45:23.202Z,13.88
2023-04-14T17:47:53.598Z,13.62
2023-04-14T17:50:21.018Z,13.80
2023-04-14T17:52:47.504Z,14.14
2023-04-14T17:55:14.630Z,14.25
2023-04-14T17:57:41.099Z,14.31
2023-04-14T18:00:09.697Z,14.19
2023-04-14T18:02:38.417Z,14.36
2023-04-14T18:05:09.280Z,13.98
2023-04-14T18:07:36.842Z,14.30
2023-04-14T18:10:03.575Z,14.35
2023-04-14T18:12:30.879Z,14.51
2023-04-14T18:14:57.316Z,14.62
2023-04-14T18:17:24.550Z,14.59
2023-04-14T18:19:51.131Z,14.22
2023-04-14T18:22:17.514Z,13.94
2023-04-14T18:29:42.644Z,13.47
2023-04-14T18:32:09.235Z,13.41
2023-04-14T18:34:35.726Z,13.58
2023-04-14T18:37:03.835Z,13.44
2023-04-14T18:39:37.369Z,13.16
2023-04-14T18:42:04.465Z,13.41
2023-04-14T18:44:30.935Z,13.54
2023-04-14T18:46:57.338Z,13.39
2023-04-14T18:49:23.943Z,13.62
2023-04-14T18:51:50.691Z,13.69
2023-04-14T18:54:17.645Z,13.35
2023-04-14T18:56:44.039Z,13.31
2023-04-14T18:59:10.519Z,13.34
2023-04-14T19:01:36.919Z,13.31
2023-04-14T19:04:03.481Z,13.17
2023-04-14T19:06:29.992Z,13.16
2023-04-14T19:08:56.549Z,12.86
2023-04-14T19:11:23.452Z,12.62
2023-04-14T19:13:49.853Z,12.30
2023-04-14T19:16:16.325Z,12.36
2023-04-14T19:18:42.740Z,12.55
2023-04-14T19:21:09.210Z,12.42
2023-04-14T19:23:36.677Z,12.24
2023-04-14T19:26:03.528Z,12.12
2023-04-14T19:28:30.083Z,11.95
2023-04-14T19:30:56.499Z,11.89
2023-04-14T19:33:23.827Z,11.79
2023-04-14T19:35:51.604Z,11.80
2023-04-14T19:38:19.025Z,11.75
2023-04-14T19:40:48.720Z,11.75
2023-04-14T19:43:18.751Z,11.58
2023-04-14T19:45:54.842Z,11.56
2023-04-14T19:48:23.875Z,11.44
2023-04-14T19:50:54.090Z,11.40
2023-04-14T19:53:21.590Z,11.28
2023-04-14T19:55:50.127Z,11.27
2023-04-14T19:58:20.076Z,11.11
2023-04-14T20:00:48.863Z,10.94
2023-04-14T20:03:15.410Z,10.84
2023-04-14T20:05:42.706Z,10.88
2023-04-14T20:08:09.109Z,10.87
2023-04-14T20:10:35.736Z,10.79
2023-04-14T20:13:02.388Z,10.75
2023-04-14T20:15:29.113Z,10.65
2023-04-14T20:17:55.647Z,10.49
2023-04-14T20:20:22.205Z,10.41
2023-04-14T20:22:49.426Z,10.41
2023-04-14T20:25:17.787Z,10.55
2023-04-14T20:27:45.010Z,10.41
2023-04-14T20:30:12.414Z,10.27
2023-04-14T20:32:38.897Z,10.30
2023-04-14T20:35:05.630Z,10.18
2023-04-14T20:37:32.058Z,9.98
2023-04-14T20:39:58.435Z,9.92
2023-04-14T20:42:25.169Z,9.81
2023-04-14T20:44:51.590Z,9.81
2023-04-14T20:47:17.966Z,9.83
2023-04-14T20:49:44.864Z,9.78
2023-04-14T20:52:11.337Z,9.76
2023-04-14T20:54:37.771Z,9.65
2023-04-14T20:57:05.403Z,9.78
2023-04-14T20:59:32.605Z,9.89
2023-04-14T21:01:59.145Z,9.88
2023-04-14T21:04:26.020Z,9.81
2023-04-14T21:06:52.772Z,9.83
2023-04-14T21:09:21.224Z,9.74
2023-04-14T21:11:47.719Z,9.58
2023-04-14T21:15:47.240Z,9.74
2023-04-14T21:17:20.433Z,9.77
2023-04-14T21:19:47.001Z,9.76
2023-04-14T21:22:13.387Z,9.78
2023-04-14T21:24:39.843Z,9.71
2023-04-14T21:27:06.520Z,9.77
2023-04-14T21:29:32.925Z,9.74
2023-04-14T21:31:59.614Z,9.81
2023-04-14T21:34:27.366Z,9.77
2023-04-14T21:36:53.912Z,9.77
2023-04-14T21:39:21.718Z,9.76
2023-04-14T21:41:48.504Z,9.75
2023-04-14T21:44:15.604Z,9.73
2023-04-14T21:46:42.094Z,9.70
2023-04-14T21:49:08.504Z,9.60
2023-04-14T21:51:34.896Z,9.43
2023-04-14T21:54:01.291Z,9.37
2023-04-14T21:56:27.855Z,9.31
2023-04-14T21:58:54.352Z,9.26
2023-04-14T22:01:20.820Z,9.15
2023-04-14T22:03:47.513Z,9.16
2023-04-14T22:06:14.256Z,9.20
2023-04-14T22:08:40.921Z,9.20
2023-04-14T22:11:07.475Z,8.94
2023-04-14T22:13:33.909Z,8.88
2023-04-14T22:16:00.471Z,9.07
2023-04-14T22:18:30.848Z,9.15
2023-04-14T22:20:57.260Z,9.15
2023-04-14T22:23:23.641Z,9.22
2023-04-14T22:25:50.708Z,9.04
2023-04-14T22:28:17.083Z,9.03
2023-04-14T22:30:44.038Z,8.85
2023-04-14T22:33:10.467Z,8.85
2023-04-14T22:35:36.917Z,8.83
2023-04-14T22:38:03.396Z,8.80
2023-04-14T22:40:29.776Z,8.88
2023-04-14T22:42:56.579Z,8.84
2023-04-14T22:45:23.048Z,8.93
2023-04-14T22:47:49.519Z,8.94
2023-04-14T22:50:15.955Z,8.98
2023-04-14T22:52:42.465Z,9.02
2023-04-14T22:55:08.904Z,8.95
2023-04-14T22:57:35.356Z,8.80
2023-04-14T23:00:08.848Z,8.54
2023-04-14T23:02:36.106Z,8.56
2023-04-14T23:05:04.072Z,8.65
2023-04-14T23:07:30.447Z,8.28
2023-04-14T23:09:57.458Z,8.16
2023-04-14T23:12:23.860Z,8.23
2023-04-14T23:14:50.422Z,8.27
2023-04-14T23:17:16.903Z,8.36
2023-04-14T23:19:43.321Z,8.46
2023-04-14T23:22:10.053Z,8.57
2023-04-14T23:24:36.406Z,8.46
2023-04-14T23:27:03.009Z,8.29
2023-04-14T23:29:29.428Z,8.16
2023-04-14T23:31:56.386Z,7.90
2023-04-14T23:34:22.812Z,7.74
2023-04-14T23:36:49.416Z,7.76
2023-04-14T23:39:15.792Z,7.89
2023-04-14T23:41:42.513Z,7.92
2023-04-14T23:44:09.076Z,7.79
2023-04-14T23:46:35.519Z,7.67
2023-04-14T23:49:10.417Z,7.91
2023-04-14T23:51:48.648Z,7.83
2023-04-14T23:54:15.360Z,7.92
2023-04-14T23:56:41.761Z,8.00
2023-04-14T23:59:08.542Z,7.89
